Time;durP1;ratioP1;P1;durP2;ratioP2;P2;SDS_P1;SDS_P2;PMS_P1;PMS_P2;Temp;Humidity;BMP_temperature;BMP_pressure;BME280_temperature;BME280_humidity;BME280_pressure;Samples;Min_cycle;Max_cycle;Signal;HPM_P1;HPM_P2
2022/05/27 00:00:19;;;;;;;15.85;2.75;;;11.20;77.80;;;;;;4927436;29;20055;-82
2022/05/27 00:02:49;;;;;;;14.55;2.55;;;11.20;77.70;;;;;;4930323;29;20552;-82
2022/05/27 00:05:18;;;;;;;18.70;2.55;;;11.20;77.60;;;;;;4921485;29;20055;-82
2022/05/27 00:07:46;;;;;;;14.05;2.60;;;11.20;77.70;;;;;;4925123;29;20376;-83
2022/05/27 00:10:14;;;;;;;17.45;3.33;;;11.20;77.70;;;;;;4920811;29;20048;-82
2022/05/27 00:12:42;;;;;;;14.20;2.50;;;11.10;77.80;;;;;;4919774;29;20071;-82
2022/05/27 00:15:10;;;;;;;9.35;2.30;;;11.20;77.90;;;;;;4927051;29;20054;-84
2022/05/27 00:17:38;;;;;;;17.35;2.42;;;11.10;78.00;;;;;;4928835;29;20044;-83
2022/05/27 00:20:07;;;;;;;12.32;2.30;;;11.00;78.00;;;;;;4898603;29;20048;-83
2022/05/27 00:22:35;;;;;;;21.08;2.83;;;11.00;78.10;;;;;;4917035;29;20043;-82
2022/05/27 00:25:03;;;;;;;16.30;3.25;;;11.00;78.10;;;;;;4898188;29;20052;-82
2022/05/27 00:27:30;;;;;;;21.20;3.42;;;11.00;78.00;;;;;;4911829;29;20047;-83
2022/05/27 00:29:58;;;;;;;27.10;3.35;;;11.00;78.00;;;;;;4897225;29;20526;-82
2022/05/27 00:32:29;;;;;;;16.48;3.22;;;11.00;77.90;;;;;;4894299;29;20040;-82
2022/05/27 00:34:57;;;;;;;16.23;2.65;;;11.00;77.70;;;;;;4894919;29;20053;-82
2022/05/27 00:37:26;;;;;;;18.20;3.55;;;11.00;77.50;;;;;;4909483;29;20411;-84
2022/05/27 00:39:54;;;;;;;19.13;2.67;;;11.00;77.30;;;;;;4898645;29;20045;-84
2022/05/27 00:42:21;;;;;;;21.08;3.40;;;11.00;77.10;;;;;;4911716;29;20056;-83
2022/05/27 00:44:49;;;;;;;16.08;2.75;;;11.00;77.00;;;;;;4898685;29;20048;-83
2022/05/27 00:47:20;;;;;;;13.60;2.65;;;11.00;76.90;;;;;;4906327;29;20064;-83
2022/05/27 00:50:01;;;;;;;17.15;2.47;;;11.00;76.90;;;;;;4909349;29;20044;-83
2022/05/27 00:52:32;;;;;;;19.42;3.13;;;11.00;76.70;;;;;;4905053;29;20051;-84
2022/05/27 00:55:04;;;;;;;18.63;3.08;;;11.00;76.70;;;;;;4906052;29;20414;-83
2022/05/27 00:57:38;;;;;;;16.05;2.78;;;11.00;76.80;;;;;;4883589;29;20048;-83
2022/05/27 01:00:10;;;;;;;26.55;3.65;;;11.00;76.80;;;;;;4897845;29;20044;-83
2022/05/27 01:02:38;;;;;;;12.57;2.50;;;11.00;76.80;;;;;;4901462;29;20416;-83
2022/05/27 01:05:08;;;;;;;15.00;2.78;;;11.00;76.70;;;;;;4895312;29;20052;-82
2022/05/27 01:07:35;;;;;;;15.27;2.50;;;11.00;76.50;;;;;;4897359;29;20482;-83
2022/05/27 01:10:06;;;;;;;17.17;2.80;;;11.00;76.40;;;;;;4904487;29;20090;-83
2022/05/27 01:12:56;;;;;;;16.38;3.35;;;11.00;76.00;;;;;;4896406;29;20052;-83
2022/05/27 01:15:42;;;;;;;21.83;2.63;;;11.00;76.10;;;;;;4893466;29;20395;-83
2022/05/27 01:22:07;;;;;;;17.42;3.05;;;11.00;75.90;;;;;;4893430;29;20491;-83
2022/05/27 01:24:53;;;;;;;14.43;2.78;;;10.90;75.70;;;;;;4895656;29;20518;-84
2022/05/27 01:27:27;;;;;;;24.80;3.70;;;10.90;75.80;;;;;;4896993;29;20045;-82
2022/05/27 01:30:21;;;;;;;17.73;3.25;;;10.90;75.90;;;;;;4907523;29;20044;-81
2022/05/27 01:33:13;;;;;;;19.40;2.92;;;10.80;75.90;;;;;;4892625;29;20060;-83
2022/05/27 01:35:59;;;;;;;19.98;2.78;;;10.90;75.90;;;;;;4894863;29;20060;-82
2022/05/27 01:38:43;;;;;;;21.70;3.45;;;10.80;75.80;;;;;;4894982;29;20059;-81
2022/05/27 01:41:33;;;;;;;26.52;3.97;;;10.80;75.10;;;;;;4893211;29;20115;-83
2022/05/27 01:44:25;;;;;;;21.00;3.50;;;10.80;74.90;;;;;;4891081;29;20053;-83
2022/05/27 01:46:54;;;;;;;23.52;3.65;;;10.80;73.80;;;;;;4895993;29;20044;-82
2022/05/27 01:49:40;;;;;;;21.63;3.38;;;10.80;73.50;;;;;;4893144;29;20506;-81
2022/05/27 01:52:31;;;;;;;25.38;3.47;;;10.80;73.40;;;;;;4892054;29;20143;-81
2022/05/27 01:55:04;;;;;;;24.73;2.90;;;10.80;73.20;;;;;;4893678;29;20052;-82
2022/05/27 01:57:40;;;;;;;21.02;2.88;;;10.80;73.10;;;;;;4893786;29;20057;-83
2022/05/27 02:00:23;;;;;;;24.85;3.55;;;10.70;72.60;;;;;;4892934;29;20049;-81
2022/05/27 02:03:01;;;;;;;21.38;3.15;;;10.70;72.20;;;;;;4894698;29;20060;-84
2022/05/27 02:05:52;;;;;;;22.05;3.13;;;10.70;72.20;;;;;;4892924;29;20045;-83
2022/05/27 02:08:22;;;;;;;23.55;3.72;;;10.70;72.20;;;;;;4892493;29;20422;-84
2022/05/27 02:11:08;;;;;;;19.92;3.28;;;10.60;72.10;;;;;;4893368;29;20037;-85
2022/05/27 02:13:47;;;;;;;19.88;3.15;;;10.60;72.20;;;;;;4893438;29;20487;-81
2022/05/27 02:16:49;;;;;;;22.80;3.15;;;10.60;72.10;;;;;;4908039;29;20604;-81
2022/05/27 02:19:24;;;;;;;15.47;2.40;;;10.50;71.70;;;;;;4900497;29;20454;-84
2022/05/27 02:22:00;;;;;;;16.92;2.85;;;10.50;71.60;;;;;;4892334;29;20523;-83
2022/05/27 02:24:37;;;;;;;23.83;4.10;;;10.50;71.40;;;;;;4894960;29;20052;-83
2022/05/27 02:27:27;;;;;;;21.20;3.25;;;10.40;71.30;;;;;;4893892;29;20044;-84
2022/05/27 02:29:58;;;;;;;23.00;4.03;;;10.40;71.40;;;;;;4893486;29;20514;-83
2022/05/27 02:32:37;;;;;;;18.27;3.22;;;10.30;71.60;;;;;;4893107;29;20048;-84
2022/05/27 02:35:26;;;;;;;25.30;3.67;;;10.30;71.80;;;;;;4876497;29;20064;-83
2022/05/27 02:37:58;;;;;;;21.83;2.90;;;10.20;71.80;;;;;;4892735;29;20040;-82
2022/05/27 02:40:35;;;;;;;25.30;3.38;;;10.10;71.70;;;;;;4892345;29;20071;-83
2022/05/27 02:43:14;;;;;;;22.08;3.53;;;10.00;71.90;;;;;;4894517;29;20044;-83
2022/05/27 02:45:55;;;;;;;23.15;3.58;;;10.00;72.10;;;;;;4879069;29;20049;-84
2022/05/27 02:48:38;;;;;;;15.90;3.10;;;9.90;72.30;;;;;;4890995;29;20040;-83
2022/05/27 02:51:43;;;;;;;23.20;3.40;;;10.00;72.50;;;;;;4891104;29;20056;-83
2022/05/27 02:54:52;;;;;;;17.00;3.17;;;10.00;72.70;;;;;;4892469;29;20553;-83
2022/05/27 02:57:28;;;;;;;19.90;3.30;;;10.00;72.80;;;;;;4892206;29;20149;-83
2022/05/27 02:59:58;;;;;;;19.23;3.28;;;10.00;72.60;;;;;;4875098;29;20059;-83
2022/05/27 03:02:25;;;;;;;26.80;3.40;;;10.10;72.60;;;;;;4891860;29;20060;-83
2022/05/27 03:04:58;;;;;;;15.13;2.70;;;10.10;72.50;;;;;;4892619;29;20065;-82
2022/05/27 03:07:57;;;;;;;18.50;2.95;;;10.20;72.30;;;;;;4894255;29;20059;-83
2022/05/27 03:10:57;;;;;;;23.13;2.83;;;10.20;72.10;;;;;;4891512;29;20423;-83
2022/05/27 03:13:51;;;;;;;14.38;2.35;;;10.20;72.10;;;;;;4846790;29;20073;-82
2022/05/27 03:16:35;;;;;;;17.25;3.47;;;10.20;72.20;;;;;;4843419;29;20535;-82
2022/05/27 03:19:08;;;;;;;;;;;10.20;72.20;;;;;;4836858;29;20050;-82
2022/05/27 03:21:50;;;;;;;24.50;3.80;;;10.20;72.30;;;;;;4847811;29;19932;-83
2022/05/27 03:24:51;;;;;;;21.70;3.08;;;10.10;72.40;;;;;;4846789;29;20061;-82
2022/05/27 03:27:41;;;;;;;23.13;3.35;;;10.10;72.40;;;;;;4852981;29;20060;-83
2022/05/27 03:30:17;;;;;;;21.77;2.92;;;10.00;72.50;;;;;;4851250;29;20072;-83
2022/05/27 03:33:02;;;;;;;18.48;3.50;;;10.00;72.50;;;;;;4849672;29;20058;-83
2022/05/27 03:35:59;;;;;;;19.83;3.22;;;10.00;72.30;;;;;;4847232;29;20045;-83
2022/05/27 03:38:42;;;;;;;17.85;3.30;;;9.90;72.30;;;;;;4845193;29;20046;-84
2022/05/27 03:41:16;;;;;;;20.52;3.25;;;10.00;72.20;;;;;;4851521;29;20060;-84
2022/05/27 03:43:44;;;;;;;20.35;3.67;;;9.90;72.30;;;;;;4846925;29;20053;-83
2022/05/27 03:46:12;;;;;;;24.10;3.45;;;9.90;72.30;;;;;;4850620;29;20071;-83
2022/05/27 03:48:40;;;;;;;21.83;2.80;;;9.90;72.10;;;;;;4844651;29;20064;-83
2022/05/27 03:51:17;;;;;;;20.40;3.08;;;9.90;72.10;;;;;;4908456;29;20065;-82
2022/05/27 03:54:03;;;;;;;25.55;3.88;;;9.90;72.00;;;;;;4895702;29;20530;-83
2022/05/27 03:56:40;;;;;;;14.60;2.95;;;10.00;71.90;;;;;;4897705;29;20047;-83
2022/05/27 03:59:12;;;;;;;25.75;3.38;;;10.00;71.70;;;;;;4879324;29;20049;-83
2022/05/27 04:01:41;;;;;;;23.25;3.00;;;10.00;71.50;;;;;;4877495;29;20056;-83
2022/05/27 04:04:13;;;;;;;19.98;3.00;;;10.00;71.20;;;;;;4881407;29;20060;-84
2022/05/27 04:06:41;;;;;;;21.45;3.30;;;10.00;70.80;;;;;;4895782;29;20521;-83
2022/05/27 04:09:09;;;;;;;30.90;3.78;;;10.10;70.60;;;;;;4894562;29;20053;-84
2022/05/27 04:11:36;;;;;;;24.17;3.45;;;10.10;70.70;;;;;;4897349;29;20051;-83
2022/05/27 04:14:04;;;;;;;17.08;3.40;;;10.10;70.80;;;;;;4898197;29;20045;-84
2022/05/27 04:16:32;;;;;;;21.98;3.05;;;10.10;70.80;;;;;;4895696;29;20041;-83
2022/05/27 04:19:00;;;;;;;19.45;3.13;;;10.10;70.80;;;;;;4880740;29;20057;-83
2022/05/27 04:21:28;;;;;;;19.08;3.03;;;10.00;70.90;;;;;;4898542;29;20406;-83
2022/05/27 04:23:56;;;;;;;16.80;2.72;;;10.00;71.00;;;;;;4898669;29;20053;-83
2022/05/27 04:26:24;;;;;;;22.55;3.17;;;9.90;70.90;;;;;;4896634;29;20040;-83
2022/05/27 04:28:51;;;;;;;14.88;2.78;;;9.70;71.10;;;;;;4905925;29;20067;-83
2022/05/27 04:31:19;;;;;;;20.77;3.03;;;9.60;71.30;;;;;;4913580;29;20048;-82
2022/05/27 04:33:48;;;;;;;17.80;3.03;;;9.50;71.60;;;;;;4914001;29;20043;-82
2022/05/27 04:36:15;;;;;;;22.70;3.42;;;9.40;71.80;;;;;;4913524;29;20083;-82
2022/05/27 04:38:43;;;;;;;22.80;3.70;;;9.30;72.10;;;;;;4912984;29;20067;-82
2022/05/27 04:41:11;;;;;;;19.40;3.50;;;9.20;72.30;;;;;;4883487;29;20044;-83
2022/05/27 04:43:38;;;;;;;19.98;3.42;;;9.20;72.70;;;;;;4897144;29;21212;-83
2022/05/27 04:46:06;;;;;;;27.23;3.10;;;9.20;72.80;;;;;;4912821;29;20402;-83
2022/05/27 04:48:33;;;;;;;20.98;3.42;;;9.20;72.80;;;;;;4929726;29;20060;-83
2022/05/27 04:51:01;;;;;;;18.38;2.92;;;9.30;72.70;;;;;;4914813;29;20044;-83
2022/05/27 04:53:29;;;;;;;23.23;3.10;;;9.30;72.60;;;;;;4913391;29;20052;-83
2022/05/27 04:55:56;;;;;;;25.30;3.17;;;9.30;72.50;;;;;;4912467;29;20051;-83
2022/05/27 04:58:24;;;;;;;15.02;2.88;;;9.40;72.30;;;;;;4913060;29;20070;-83
2022/05/27 05:00:51;;;;;;;19.13;2.80;;;9.50;72.00;;;;;;4914716;29;20040;-83
2022/05/27 05:03:19;;;;;;;17.13;2.95;;;9.60;71.80;;;;;;4913230;29;20056;-83
2022/05/27 05:05:47;;;;;;;23.10;2.80;;;9.60;71.80;;;;;;4914531;29;20521;-82
2022/05/27 05:08:38;;;;;;;24.73;3.15;;;9.60;71.80;;;;;;4912210;29;20040;-82
2022/05/27 05:11:06;;;;;;;16.55;2.65;;;9.70;71.70;;;;;;4912202;29;20052;-83
2022/05/27 05:13:35;;;;;;;20.95;3.53;;;9.60;71.70;;;;;;4912711;29;20414;-83
2022/05/27 05:16:04;;;;;;;20.52;2.60;;;9.70;71.60;;;;;;4897932;29;20075;-81
2022/05/27 05:18:32;;;;;;;20.27;3.08;;;9.60;71.50;;;;;;4917344;29;20052;-82
2022/05/27 05:21:00;;;;;;;21.10;3.25;;;9.60;71.30;;;;;;4917151;29;20391;-83
2022/05/27 05:23:27;;;;;;;21.73;3.42;;;9.60;71.20;;;;;;4914904;29;20044;-83
2022/05/27 05:25:55;;;;;;;9.45;1.98;;;9.60;71.10;;;;;;4915261;29;20055;-82
2022/05/27 05:28:22;;;;;;;20.60;3.22;;;9.70;70.70;;;;;;4905710;29;20407;-82
2022/05/27 05:30:50;;;;;;;18.90;4.00;;;9.70;70.30;;;;;;4896441;29;20045;-83
2022/05/27 05:33:18;;;;;;;18.90;2.72;;;9.70;70.50;;;;;;4878883;29;20083;-81
2022/05/27 05:35:46;;;;;;;18.50;2.75;;;9.80;70.60;;;;;;4895771;29;20047;-83
2022/05/27 05:38:14;;;;;;;19.13;2.65;;;9.80;69.70;;;;;;4895681;29;20372;-83
2022/05/27 05:40:42;;;;;;;17.50;2.72;;;9.80;69.70;;;;;;4894633;29;20051;-82
2022/05/27 05:43:10;;;;;;;13.98;2.40;;;9.90;69.50;;;;;;4894514;29;20431;-82
2022/05/27 05:45:38;;;;;;;19.45;3.13;;;10.00;69.10;;;;;;4895381;29;20048;-82
2022/05/27 05:48:06;;;;;;;16.35;2.88;;;9.90;69.00;;;;;;4893602;29;20048;-83
2022/05/27 05:50:34;;;;;;;20.90;3.00;;;9.90;69.10;;;;;;4894914;29;20403;-83
2022/05/27 05:53:02;;;;;;;15.30;2.38;;;9.90;69.20;;;;;;4893474;29;20407;-82
2022/05/27 05:55:31;;;;;;;16.48;2.90;;;9.80;69.70;;;;;;4894823;29;20045;-81
2022/05/27 05:57:59;;;;;;;21.70;3.47;;;9.80;70.10;;;;;;4894527;29;20048;-82
2022/05/27 06:00:30;;;;;;;15.13;2.72;;;9.80;70.50;;;;;;4894440;29;20056;-81
2022/05/27 06:02:58;;;;;;;21.73;3.58;;;9.90;71.00;;;;;;4892785;29;20053;-82
2022/05/27 06:05:26;;;;;;;17.80;2.75;;;9.90;71.30;;;;;;4892716;29;20040;-81
2022/05/27 06:07:56;;;;;;;22.58;3.30;;;9.90;71.70;;;;;;4907748;29;20045;-81
2022/05/27 06:10:24;;;;;;;20.30;3.00;;;9.90;72.10;;;;;;4877817;29;20399;-83
2022/05/27 06:12:51;;;;;;;15.98;3.85;;;10.00;72.60;;;;;;4893581;29;20048;-81
2022/05/27 06:15:20;;;;;;;15.60;3.15;;;10.00;72.90;;;;;;4877519;29;20044;-82
2022/05/27 06:17:48;;;;;;;17.88;2.40;;;10.10;73.20;;;;;;4892515;29;20051;-84
2022/05/27 06:20:17;;;;;;;25.42;3.10;;;10.10;73.20;;;;;;4892662;29;20044;-82
2022/05/27 06:22:44;;;;;;;22.35;2.97;;;10.20;73.40;;;;;;4876548;29;20067;-83
2022/05/27 06:25:13;;;;;;;27.13;3.85;;;10.20;73.60;;;;;;4893478;29;20478;-82
2022/05/27 06:27:40;;;;;;;21.80;3.17;;;10.20;73.50;;;;;;4895449;29;20057;-82
2022/05/27 06:35:41;;;;;;;22.00;3.33;;;10.30;73.00;;;;;;4893926;29;20111;-82
2022/05/27 06:38:10;;;;;;;15.80;3.05;;;10.50;72.90;;;;;;4896732;29;20064;-82
2022/05/27 06:40:38;;;;;;;18.27;3.30;;;10.60;72.80;;;;;;4877203;29;20052;-76
2022/05/27 06:43:05;;;;;;;15.68;2.70;;;10.70;72.30;;;;;;4893158;29;20052;-83
2022/05/27 06:45:34;;;;;;;20.55;3.28;;;10.80;72.20;;;;;;4893992;29;20044;-86
2022/05/27 06:48:04;;;;;;;19.73;2.30;;;10.80;71.20;;;;;;4877784;29;20045;-83
2022/05/27 06:50:33;;;;;;;21.30;3.08;;;10.90;70.20;;;;;;4894878;29;20041;-90
2022/05/27 06:53:00;;;;;;;20.10;2.72;;;10.80;70.30;;;;;;4895403;29;20410;-85
2022/05/27 06:55:28;;;;;;;16.80;2.63;;;10.90;69.90;;;;;;4897879;29;20053;-89
2022/05/27 06:57:56;;;;;;;23.75;3.13;;;10.90;69.60;;;;;;4898120;29;20052;-87
2022/05/27 07:00:24;;;;;;;19.52;3.63;;;11.00;69.50;;;;;;4898175;29;20053;-87
2022/05/27 07:02:52;;;;;;;23.05;3.38;;;11.10;69.50;;;;;;4899507;29;20061;-86
2022/05/27 07:05:19;;;;;;;13.88;2.85;;;11.30;69.20;;;;;;4897800;29;20484;-86
2022/05/27 07:07:49;;;;;;;20.13;3.17;;;11.30;68.90;;;;;;4899314;29;20056;-88
2022/05/27 07:10:17;;;;;;;18.95;2.60;;;11.50;68.10;;;;;;4898521;29;20052;-87
2022/05/27 07:12:44;;;;;;;16.85;3.03;;;11.50;68.20;;;;;;4899807;29;20053;-87
2022/05/27 07:15:12;;;;;;;21.42;3.47;;;11.60;67.90;;;;;;4900704;29;20056;-88
2022/05/27 07:17:40;;;;;;;13.48;2.03;;;11.70;68.20;;;;;;4900707;29;20052;-88
2022/05/27 07:20:08;;;;;;;18.95;2.95;;;11.80;67.60;;;;;;4897653;29;20413;-87
2022/05/27 07:22:36;;;;;;;19.25;3.47;;;11.80;67.60;;;;;;4900014;29;20049;-87
2022/05/27 07:25:04;;;;;;;21.70;3.42;;;11.90;67.40;;;;;;4899521;29;20240;-88
2022/05/27 07:27:31;;;;;;;15.80;2.25;;;12.00;67.20;;;;;;4899864;29;20071;-87
2022/05/27 07:29:59;;;;;;;25.92;3.10;;;12.00;66.50;;;;;;4895919;29;20056;-87
2022/05/27 07:32:27;;;;;;;17.02;3.10;;;12.00;66.70;;;;;;4898762;29;20056;-88
2022/05/27 07:34:54;;;;;;;17.55;2.92;;;12.10;67.00;;;;;;4882012;29;20045;-88
2022/05/27 07:37:22;;;;;;;19.13;2.85;;;12.30;65.90;;;;;;4881713;29;20064;-86
2022/05/27 07:39:50;;;;;;;12.68;2.42;;;12.30;65.30;;;;;;4882044;29;20060;-85
2022/05/27 07:42:18;;;;;;;16.23;2.67;;;12.30;64.60;;;;;;4896461;29;20051;-85
2022/05/27 07:44:45;;;;;;;16.75;2.47;;;12.30;65.00;;;;;;4896785;29;20056;-85
2022/05/27 07:47:13;;;;;;;23.23;3.10;;;12.40;64.50;;;;;;4900515;29;20049;-87
2022/05/27 07:49:40;;;;;;;18.33;2.65;;;12.40;64.00;;;;;;4897517;29;20053;-87
2022/05/27 07:52:08;;;;;;;19.00;3.30;;;12.40;64.30;;;;;;4896616;29;20526;-87
2022/05/27 07:54:36;;;;;;;15.13;2.40;;;12.50;64.40;;;;;;4895673;29;20044;-86
2022/05/27 07:57:23;;;;;;;17.70;2.83;;;12.50;63.40;;;;;;4880388;29;20052;-86
2022/05/27 07:59:54;;;;;;;17.63;3.00;;;12.60;63.70;;;;;;4879267;29;20056;-85
2022/05/27 08:02:22;;;;;;;16.40;2.50;;;12.60;63.60;;;;;;4880383;29;20521;-86
2022/05/27 08:04:51;;;;;;;15.00;2.42;;;12.70;63.90;;;;;;4895435;29;20065;-85
2022/05/27 08:07:20;;;;;;;16.13;2.53;;;12.70;62.80;;;;;;4896057;29;20537;-85
2022/05/27 08:09:48;;;;;;;20.75;3.30;;;12.70;62.90;;;;;;4896428;29;20052;-86
2022/05/27 08:12:16;;;;;;;16.08;2.80;;;12.70;63.20;;;;;;4895048;29;20045;-86
2022/05/27 08:14:43;;;;;;;17.85;2.60;;;12.80;62.90;;;;;;4896852;29;20057;-85
2022/05/27 08:17:11;;;;;;;21.35;3.53;;;12.80;62.60;;;;;;4896435;29;20049;-87
2022/05/27 08:19:39;;;;;;;15.95;2.15;;;13.00;62.60;;;;;;4895574;29;20048;-85
2022/05/27 08:22:06;;;;;;;15.48;2.30;;;13.10;62.50;;;;;;4896690;29;20044;-85
2022/05/27 08:24:34;;;;;;;11.48;2.50;;;13.10;61.90;;;;;;4901629;29;20060;-85
2022/05/27 08:27:02;;;;;;;15.32;2.30;;;13.20;61.80;;;;;;4892110;29;20044;-86
2022/05/27 08:29:29;;;;;;;14.68;2.05;;;13.20;61.10;;;;;;4906967;29;20059;-86
2022/05/27 08:31:57;;;;;;;17.40;3.33;;;13.30;61.30;;;;;;4898029;29;20044;-85
2022/05/27 08:39:56;;;;;;;9.43;2.20;;;13.30;60.50;;;;;;4897500;29;20055;-87
2022/05/27 08:42:51;;;;;;;16.38;2.70;;;13.20;60.20;;;;;;4895928;29;20048;-85
2022/05/27 08:45:45;;;;;;;23.17;2.97;;;13.00;60.40;;;;;;4896884;29;20530;-86
2022/05/27 08:48:14;;;;;;;14.40;2.00;;;13.00;61.30;;;;;;4893204;29;20507;-84
2022/05/27 08:51:17;;;;;;;14.02;1.92;;;13.00;61.90;;;;;;4882353;29;20601;-84
2022/05/27 08:54:06;;;;;;;10.00;2.33;;;13.00;60.90;;;;;;4890963;29;20060;-83
2022/05/27 08:59:52;;;;;;;22.25;2.95;;;13.30;60.70;;;;;;4896213;29;20513;-86
2022/05/27 09:02:36;;;;;;;9.38;1.73;;;13.60;59.40;;;;;;4893310;29;20380;-84
2022/05/27 09:05:25;;;;;;;16.13;2.47;;;13.60;57.60;;;;;;4911034;29;20044;-84
2022/05/27 09:08:21;;;;;;;19.50;2.25;;;13.50;58.20;;;;;;4895576;29;20052;-85
2022/05/27 09:10:56;;;;;;;15.38;2.63;;;13.70;58.40;;;;;;4895854;29;20056;-85
2022/05/27 09:13:39;;;;;;;17.63;2.60;;;13.90;57.70;;;;;;4883214;29;20787;-86
2022/05/27 09:16:10;;;;;;;12.55;2.28;;;14.00;57.30;;;;;;4892987;29;20044;-86
2022/05/27 09:19:15;;;;;;;12.60;2.03;;;14.20;57.40;;;;;;4895082;29;20052;-86
2022/05/27 09:21:55;;;;;;;21.52;2.83;;;14.30;57.50;;;;;;4897155;29;20376;-86
2022/05/27 09:24:35;;;;;;;13.85;2.78;;;14.40;57.60;;;;;;4892722;29;20056;-85
2022/05/27 09:27:14;;;;;;;9.68;2.10;;;14.40;56.90;;;;;;4892622;29;20056;-85
2022/05/27 09:29:58;;;;;;;12.40;1.85;;;14.30;56.00;;;;;;4903015;29;20052;-85
2022/05/27 09:32:30;;;;;;;13.55;2.25;;;14.30;56.30;;;;;;4899664;29;20048;-86
2022/05/27 09:35:05;;;;;;;7.78;1.90;;;14.40;56.30;;;;;;4897735;29;20052;-85
2022/05/27 09:37:54;;;;;;;13.93;2.28;;;14.50;55.80;;;;;;4902290;29;20691;-85
2022/05/27 09:40:28;;;;;;;9.98;1.90;;;14.50;54.60;;;;;;4885792;29;20060;-86
2022/05/27 09:43:02;;;;;;;11.90;1.80;;;14.30;54.40;;;;;;4903798;29;20071;-86
2022/05/27 09:45:30;;;;;;;15.73;2.20;;;14.20;55.10;;;;;;4897423;29;20403;-86
2022/05/27 09:48:01;;;;;;;13.35;2.50;;;14.00;55.40;;;;;;4895463;29;20581;-85
2022/05/27 09:50:37;;;;;;;18.80;2.80;;;14.00;55.90;;;;;;4898725;29;20052;-85
2022/05/27 09:53:05;;;;;;;10.77;2.17;;;14.00;55.90;;;;;;4900173;29;20055;-86
2022/05/27 09:55:52;;;;;;;5.88;1.67;;;14.00;56.00;;;;;;4885489;29;20055;-86
2022/05/27 09:58:44;;;;;;;12.55;2.03;;;14.10;55.80;;;;;;4903637;29;20060;-87
2022/05/27 10:01:25;;;;;;;13.45;1.67;;;14.00;56.00;;;;;;4905477;29;20451;-87
2022/05/27 10:04:11;;;;;;;13.65;2.25;;;13.90;56.60;;;;;;4906480;29;20122;-86
2022/05/27 10:06:40;;;;;;;8.80;1.92;;;13.80;56.40;;;;;;4901148;29;20048;-87
2022/05/27 10:09:27;;;;;;;13.18;2.08;;;13.80;56.70;;;;;;4898917;29;20036;-86
2022/05/27 10:11:57;;;;;;;9.75;1.50;;;13.90;56.30;;;;;;4899859;29;20056;-85
2022/05/27 10:14:32;;;;;;;9.00;2.00;;;14.00;55.80;;;;;;4893696;29;20047;-85
2022/05/27 10:17:36;;;;;;;11.73;1.80;;;14.20;55.20;;;;;;4893233;29;20053;-86
2022/05/27 10:20:17;;;;;;;11.37;2.00;;;14.30;55.20;;;;;;4894492;29;20047;-86
2022/05/27 10:22:58;;;;;;;11.25;1.85;;;14.50;54.30;;;;;;4899064;29;20059;-85
2022/05/27 10:25:36;;;;;;;10.90;2.15;;;14.60;53.90;;;;;;4901873;29;20053;-87
2022/05/27 10:28:06;;;;;;;15.27;2.08;;;14.70;53.30;;;;;;4893472;29;20049;-85
2022/05/27 10:31:04;;;;;;;11.93;2.03;;;14.80;53.20;;;;;;4902343;29;20828;-85
2022/05/27 10:33:43;;;;;;;13.52;2.03;;;14.90;53.40;;;;;;4899485;29;20051;-85
2022/05/27 10:36:37;;;;;;;10.80;1.67;;;15.30;52.80;;;;;;4898331;29;20063;-85
2022/05/27 10:39:28;;;;;;;12.00;1.60;;;15.50;51.10;;;;;;4878311;29;20044;-86
2022/05/27 10:42:07;;;;;;;14.57;2.15;;;15.60;50.00;;;;;;4913962;29;20060;-86
2022/05/27 10:44:58;;;;;;;23.70;2.00;;;15.70;49.80;;;;;;4881808;29;20055;-86
2022/05/27 10:47:28;;;;;;;11.60;1.95;;;15.50;49.70;;;;;;4914613;29;20513;-84
2022/05/27 10:50:24;;;;;;;15.95;2.28;;;15.20;50.00;;;;;;4903443;29;20048;-84
2022/05/27 10:53:21;;;;;;;8.63;1.65;;;15.00;50.80;;;;;;4900944;29;20055;-85
2022/05/27 10:56:29;;;;;;;8.68;1.70;;;15.20;50.80;;;;;;4903394;29;20056;-85
2022/05/27 11:02:14;;;;;;;10.90;1.98;;;15.00;50.50;;;;;;4849534;29;20062;-84
2022/05/27 11:05:24;;;;;;;8.98;1.75;;;14.90;51.30;;;;;;4843729;29;20471;-84
2022/05/27 11:08:33;;;;;;;14.50;1.92;;;15.10;51.90;;;;;;4837850;29;20054;-86
2022/05/27 11:11:14;;;;;;;9.63;1.60;;;15.70;50.10;;;;;;4842452;29;20508;-84
2022/05/27 11:17:07;;;;;;;9.18;1.38;;;16.20;47.30;;;;;;4847341;29;20053;-84
2022/05/27 11:20:01;;;;;;;11.82;1.83;;;16.30;46.70;;;;;;4844295;29;20050;-84
2022/05/27 11:22:40;;;;;;;8.07;1.38;;;16.30;45.70;;;;;;4833888;29;20049;-85
2022/05/27 11:25:16;;;;;;;8.70;1.50;;;16.30;46.40;;;;;;4842509;29;20053;-84
2022/05/27 11:28:08;;;;;;;7.38;1.48;;;16.20;47.00;;;;;;4841687;29;20064;-84
2022/05/27 11:30:45;;;;;;;8.80;1.45;;;16.10;47.90;;;;;;4831289;29;20064;-84
2022/05/27 11:33:33;;;;;;;9.38;1.42;;;16.20;47.50;;;;;;4835988;29;20081;-84
2022/05/27 11:36:25;;;;;;;7.57;1.42;;;16.40;47.20;;;;;;4876672;29;20049;-87
2022/05/27 11:39:31;;;;;;;7.60;1.10;;;16.50;45.10;;;;;;4884432;29;20068;-85
2022/05/27 11:42:24;;;;;;;7.68;0.90;;;16.60;43.90;;;;;;4896863;29;20049;-84
2022/05/27 11:45:21;;;;;;;3.65;0.90;;;16.80;43.60;;;;;;4899847;29;20045;-83
2022/05/27 11:48:16;;;;;;;3.63;1.10;;;16.80;42.80;;;;;;4897920;29;20415;-85
2022/05/27 11:51:05;;;;;;;4.15;1.17;;;16.90;43.00;;;;;;4902204;29;20052;-85
2022/05/27 11:53:47;;;;;;;6.95;1.30;;;17.00;43.10;;;;;;4899381;29;20503;-85
2022/05/27 11:56:15;;;;;;;4.40;1.00;;;17.00;43.10;;;;;;4898861;29;20060;-84
2022/05/27 11:58:45;;;;;;;23.00;1.95;;;17.00;43.30;;;;;;4898449;29;20041;-84
2022/05/27 12:01:30;;;;;;;5.28;1.25;;;17.00;43.50;;;;;;4899016;29;20045;-83
2022/05/27 12:04:15;;;;;;;6.88;1.23;;;16.90;43.80;;;;;;4906082;29;20114;-85
2022/05/27 12:07:15;;;;;;;8.57;1.10;;;16.90;44.10;;;;;;4909551;29;20063;-85
2022/05/27 12:09:58;;;;;;;7.80;0.95;;;16.80;43.60;;;;;;4888849;29;20071;-86
2022/05/27 12:12:31;;;;;;;21.70;1.40;;;16.60;43.30;;;;;;4898955;29;20060;-84
2022/05/27 12:15:06;;;;;;;8.10;1.33;;;16.20;43.70;;;;;;4899042;29;20057;-85
2022/05/27 12:17:37;;;;;;;3.65;1.00;;;16.20;43.70;;;;;;4899626;29;20486;-84
2022/05/27 12:20:06;;;;;;;6.93;0.88;;;16.50;43.80;;;;;;4897518;29;20490;-83
2022/05/27 12:22:35;;;;;;;7.30;1.08;;;16.80;43.50;;;;;;4919009;29;20382;-84
2022/05/27 12:25:38;;;;;;;28.33;2.67;;;16.90;42.20;;;;;;4913502;29;20056;-84
2022/05/27 12:28:07;;;;;;;7.75;0.93;;;16.90;42.60;;;;;;4845123;29;20053;-82
2022/05/27 12:30:45;;;;;;;5.25;1.00;;;17.20;42.80;;;;;;4859081;29;20052;-84
2022/05/27 12:33:19;;;;;;;5.97;1.40;;;17.30;42.00;;;;;;4859807;29;20512;-83
2022/05/27 12:36:00;;;;;;;4.78;0.82;;;17.30;41.10;;;;;;4856522;29;20095;-84
2022/05/27 12:38:33;;;;;;;5.43;0.70;;;17.20;41.30;;;;;;4859952;29;20073;-83
2022/05/27 12:41:08;;;;;;;7.63;1.13;;;17.40;41.60;;;;;;4843638;29;20065;-85
2022/05/27 12:44:01;;;;;;;15.13;1.42;;;18.00;40.10;;;;;;4851592;29;20056;-84
2022/05/27 12:46:43;;;;;;;7.00;1.23;;;18.50;38.90;;;;;;4866354;29;20056;-84
2022/05/27 12:49:32;;;;;;;10.75;1.10;;;18.60;39.00;;;;;;4860882;29;20053;-83
2022/05/27 12:52:03;;;;;;;3.05;0.80;;;18.20;38.60;;;;;;4859671;29;20197;-83
2022/05/27 12:54:50;;;;;;;2.95;0.98;;;17.80;39.50;;;;;;4863041;29;20053;-84
2022/05/27 13:01:04;;;;;;;7.10;1.08;;;18.20;39.40;;;;;;4862678;29;20071;-83
2022/05/27 13:03:42;;;;;;;4.40;1.00;;;18.70;39.30;;;;;;4896417;29;20083;-84
2022/05/27 13:06:26;;;;;;;7.10;1.30;;;19.20;39.20;;;;;;4884541;29;20426;-85
2022/05/27 13:09:34;;;;;;;5.32;1.20;;;19.70;37.70;;;;;;4895158;29;20569;-85
2022/05/27 13:12:03;;;;;;;9.52;1.50;;;20.10;38.00;;;;;;4882478;29;20055;-86
2022/05/27 13:21:04;;;;;;;6.50;1.20;;;21.00;35.70;;;;;;4909837;29;20048;-77
2022/05/27 13:23:35;;;;;;;4.05;0.90;;;21.10;34.20;;;;;;4893282;29;20052;-77
2022/05/27 13:26:14;;;;;;;10.75;1.25;;;21.10;33.40;;;;;;4916118;29;20048;-77
2022/05/27 13:28:55;;;;;;;7.20;1.23;;;21.00;33.50;;;;;;4909999;29;20067;-77
2022/05/27 13:31:47;;;;;;;7.57;1.00;;;21.10;33.30;;;;;;4908535;29;20548;-78
2022/05/27 13:35:03;;;;;;;5.43;0.93;;;21.40;33.40;;;;;;4901884;29;20052;-76
2022/05/27 13:37:38;;;;;;;6.50;1.20;;;21.80;33.30;;;;;;4899910;29;20057;-77
2022/05/27 13:40:21;;;;;;;6.43;1.50;;;22.20;33.50;;;;;;4916244;29;20055;-79
2022/05/27 13:42:52;;;;;;;8.57;1.52;;;22.40;32.30;;;;;;4891370;29;20055;-76
2022/05/27 13:45:30;;;;;;;17.48;1.88;;;22.10;32.50;;;;;;4896399;29;20074;-79
2022/05/27 13:48:23;;;;;;;11.95;1.30;;;21.80;33.50;;;;;;4904735;29;21528;-78
2022/05/27 13:51:10;;;;;;;13.75;1.40;;;21.10;34.50;;;;;;4908584;29;20142;-79
2022/05/27 13:53:40;;;;;;;4.82;1.30;;;20.50;35.60;;;;;;4907567;29;20045;-79
2022/05/27 13:56:34;;;;;;;11.43;1.90;;;19.80;36.50;;;;;;4898302;29;20048;-78
2022/05/27 13:59:20;;;;;;;;;;;19.40;37.90;;;;;;4908037;29;20048;-78
2022/05/27 14:01:56;;;;;;;8.02;1.27;;;19.50;37.90;;;;;;4905068;29;19923;-80